Time;durP1;ratioP1;P1;durP2;ratioP2;P2;SDS_P1;SDS_P2;PMS_P1;PMS_P2;Temp;Humidity;BMP_temperature;BMP_pressure;BME280_temperature;BME280_humidity;BME280_pressure;Samples;Min_cycle;Max_cycle;Signal;HPM_P1;HPM_P2
2023/07/04 00:01:15;;;;;;;4.78;4.40;;;19.60;76.90;;;;;;5025234;28;20169;-90
2023/07/04 00:03:44;;;;;;;5.15;4.68;;;19.60;77.00;;;;;;5024832;28;20178;-89
2023/07/04 00:06:12;;;;;;;4.70;4.30;;;19.70;77.00;;;;;;5024251;28;20178;-90
2023/07/04 00:08:38;;;;;;;4.70;4.40;;;19.60;77.10;;;;;;5024667;28;20206;-90
2023/07/04 00:11:06;;;;;;;4.72;4.25;;;19.50;77.70;;;;;;5022726;28;20200;-88
2023/07/04 00:13:33;;;;;;;4.70;4.35;;;19.50;77.70;;;;;;5025090;28;20178;-90
2023/07/04 00:15:59;;;;;;;5.07;4.68;;;19.60;77.20;;;;;;5023882;28;20188;-90
2023/07/04 00:18:27;;;;;;;4.88;4.47;;;19.60;76.60;;;;;;5024725;28;20583;-93
2023/07/04 00:20:56;;;;;;;4.97;4.57;;;19.60;76.40;;;;;;5024187;28;20174;-91
2023/07/04 00:23:27;;;;;;;4.90;4.50;;;19.70;76.40;;;;;;5024661;28;20200;-90
2023/07/04 00:25:53;;;;;;;4.97;4.50;;;19.70;76.30;;;;;;5025255;28;20168;-89
2023/07/04 00:28:21;;;;;;;4.50;4.20;;;19.70;76.50;;;;;;5025027;28;20208;-91
2023/07/04 00:30:54;;;;;;;4.65;4.35;;;19.80;76.30;;;;;;5025045;28;20177;-91
2023/07/04 00:33:27;;;;;;;5.15;4.70;;;19.80;76.50;;;;;;5024908;28;20173;-90
2023/07/04 00:36:08;;;;;;;5.20;4.80;;;19.80;76.40;;;;;;5024822;28;20188;-90
2023/07/04 00:38:36;;;;;;;6.07;4.47;;;19.80;76.30;;;;;;5023867;28;20357;-90
2023/07/04 00:41:06;;;;;;;4.90;4.50;;;19.80;76.50;;;;;;5022999;28;20191;-90
2023/07/04 00:43:45;;;;;;;5.15;4.38;;;19.70;76.80;;;;;;5024597;28;20563;-89
2023/07/04 00:46:15;;;;;;;4.80;4.40;;;19.70;77.10;;;;;;5024805;28;20180;-90
2023/07/04 00:48:44;;;;;;;4.75;4.43;;;19.60;77.20;;;;;;5027936;28;20194;-91
2023/07/04 00:51:21;;;;;;;4.70;4.30;;;19.60;77.50;;;;;;5028608;28;20315;-89
2023/07/04 00:53:53;;;;;;;4.93;4.60;;;19.60;77.80;;;;;;5028068;28;20155;-90
2023/07/04 00:56:25;;;;;;;4.72;4.32;;;19.50;77.90;;;;;;5029387;28;20169;-90
2023/07/04 00:58:56;;;;;;;4.57;4.28;;;19.60;77.80;;;;;;5025703;28;20285;-91
2023/07/04 01:01:22;;;;;;;4.60;4.28;;;19.70;77.50;;;;;;5027073;28;20340;-89
2023/07/04 01:03:48;;;;;;;4.55;4.25;;;19.60;77.40;;;;;;5028704;28;20540;-90
2023/07/04 01:06:39;;;;;;;4.85;4.55;;;19.70;77.40;;;;;;5027328;28;20186;-91
2023/07/04 01:09:07;;;;;;;4.47;4.18;;;19.70;77.50;;;;;;5026757;28;20677;-90
2023/07/04 01:11:42;;;;;;;4.57;4.28;;;19.60;77.60;;;;;;5026180;28;20184;-90
2023/07/04 01:14:24;;;;;;;4.70;4.30;;;19.60;77.90;;;;;;5027400;28;20509;-91
2023/07/04 01:16:50;;;;;;;4.93;4.63;;;19.70;77.90;;;;;;5026071;28;20208;-89
2023/07/04 01:19:25;;;;;;;4.80;4.50;;;19.60;78.00;;;;;;5026250;28;20196;-90
2023/07/04 01:22:01;;;;;;;4.65;4.25;;;19.70;78.40;;;;;;5027545;28;20236;-91
2023/07/04 01:24:38;;;;;;;4.43;4.10;;;19.60;79.20;;;;;;5027793;28;20177;-90
2023/07/04 01:27:06;;;;;;;4.20;3.95;;;19.50;79.20;;;;;;5027381;28;20232;-89
2023/07/04 01:29:36;;;;;;;4.80;4.40;;;19.50;79.50;;;;;;5006594;28;20220;-91
2023/07/04 01:32:03;;;;;;;4.95;4.65;;;19.60;79.20;;;;;;5006901;28;20180;-91
2023/07/04 01:34:29;;;;;;;4.68;4.28;;;19.60;79.60;;;;;;5006735;28;20189;-90
2023/07/04 01:36:54;;;;;;;4.63;4.32;;;19.60;79.60;;;;;;5007610;28;20204;-90
2023/07/04 01:39:21;;;;;;;4.35;4.05;;;19.50;79.70;;;;;;5005972;28;20193;-91
2023/07/04 01:41:47;;;;;;;5.00;4.60;;;19.50;80.30;;;;;;5008367;28;20182;-90
2023/07/04 01:44:16;;;;;;;5.03;4.60;;;19.50;80.40;;;;;;5027110;28;20547;-88
2023/07/04 01:46:42;;;;;;;4.80;4.50;;;19.40;80.50;;;;;;5027546;28;20189;-91
2023/07/04 01:49:09;;;;;;;4.75;4.35;;;19.40;81.30;;;;;;5028420;28;20227;-91
2023/07/04 01:51:41;;;;;;;4.60;4.30;;;19.40;81.50;;;;;;5027156;28;20200;-88
2023/07/04 01:54:09;;;;;;;4.63;4.32;;;19.40;82.00;;;;;;5027539;28;20194;-90
2023/07/04 01:56:37;;;;;;;4.45;4.15;;;19.30;82.30;;;;;;5026344;28;20691;-88
2023/07/04 01:59:03;;;;;;;4.38;4.07;;;19.20;83.10;;;;;;5025561;28;20216;-89
2023/07/04 02:01:29;;;;;;;4.53;4.10;;;19.20;83.40;;;;;;5026359;28;20181;-91
2023/07/04 02:03:55;;;;;;;4.70;4.30;;;19.10;83.50;;;;;;5026440;28;20174;-91
2023/07/04 02:06:23;;;;;;;4.40;4.00;;;19.10;84.40;;;;;;5027000;28;20174;-91
2023/07/04 02:08:48;;;;;;;4.85;4.47;;;19.10;84.10;;;;;;5026473;28;20197;-91
2023/07/04 02:11:14;;;;;;;4.10;3.80;;;19.10;85.50;;;;;;5024688;28;20182;-90
2023/07/04 02:13:40;;;;;;;4.88;4.45;;;19.00;85.30;;;;;;5025980;28;20257;-91
2023/07/04 02:16:06;;;;;;;4.47;4.07;;;18.90;85.80;;;;;;5026011;28;20192;-90
2023/07/04 02:18:31;;;;;;;4.53;4.20;;;18.90;85.60;;;;;;5024127;28;20240;-91
2023/07/04 02:20:57;;;;;;;4.45;4.15;;;18.90;85.90;;;;;;5026302;28;20180;-90
2023/07/04 02:23:23;;;;;;;4.43;4.03;;;18.90;85.90;;;;;;5026339;28;20178;-90
2023/07/04 02:25:49;;;;;;;4.35;4.05;;;18.90;86.00;;;;;;5017321;28;20183;-89
2023/07/04 02:28:15;;;;;;;4.20;4.00;;;18.90;85.80;;;;;;5006100;28;20202;-91
2023/07/04 02:30:43;;;;;;;4.22;3.88;;;18.80;86.70;;;;;;5006578;28;20257;-91
2023/07/04 02:33:08;;;;;;;4.10;3.78;;;18.90;86.40;;;;;;5005611;28;20175;-91
2023/07/04 02:35:34;;;;;;;4.82;4.43;;;18.90;86.40;;;;;;5006022;28;20186;-90
2023/07/04 02:38:00;;;;;;;4.68;4.38;;;18.90;86.40;;;;;;5005083;28;20256;-92
2023/07/04 02:40:26;;;;;;;4.47;4.15;;;19.00;86.00;;;;;;5004686;28;20228;-90
2023/07/04 02:42:51;;;;;;;4.25;3.95;;;19.00;85.20;;;;;;5005814;28;20186;-91
2023/07/04 02:45:17;;;;;;;4.43;4.03;;;19.10;85.30;;;;;;5005233;28;20178;-90
2023/07/04 02:47:43;;;;;;;4.57;4.18;;;19.10;85.00;;;;;;5015128;28;20290;-90
2023/07/04 02:50:09;;;;;;;4.15;3.90;;;19.10;84.70;;;;;;5025240;28;20181;-91
2023/07/04 02:52:35;;;;;;;4.53;4.22;;;19.10;85.00;;;;;;5025345;28;20186;-88
2023/07/04 02:55:00;;;;;;;4.38;4.07;;;19.00;85.50;;;;;;5025388;28;20560;-89
2023/07/04 02:57:26;;;;;;;4.60;4.20;;;18.90;86.10;;;;;;5025103;28;20217;-90
2023/07/04 02:59:52;;;;;;;4.57;4.28;;;18.90;86.60;;;;;;5023542;28;20192;-91
2023/07/04 03:02:18;;;;;;;4.57;4.25;;;18.90;86.70;;;;;;5025122;28;20177;-89
2023/07/04 03:04:46;;;;;;;4.63;4.30;;;18.90;86.40;;;;;;5023304;28;20186;-89
2023/07/04 03:07:11;;;;;;;4.60;4.22;;;18.90;86.40;;;;;;5024602;28;20430;-90
2023/07/04 03:09:37;;;;;;;4.07;3.78;;;19.00;85.80;;;;;;5019472;28;20194;-91
2023/07/04 03:12:03;;;;;;;4.60;4.22;;;19.00;85.60;;;;;;5004261;28;20256;-90
2023/07/04 03:14:29;;;;;;;4.40;4.00;;;19.00;85.30;;;;;;5003913;28;20641;-87
2023/07/04 03:16:55;;;;;;;4.13;3.83;;;18.90;85.40;;;;;;5005710;28;20206;-91
2023/07/04 03:19:21;;;;;;;4.47;3.90;;;19.00;85.40;;;;;;5005824;28;20186;-89
2023/07/04 03:21:46;;;;;;;4.30;4.00;;;18.90;85.50;;;;;;5011494;28;20201;-90
2023/07/04 03:24:12;;;;;;;5.10;4.18;;;18.90;85.90;;;;;;5023488;28;20201;-91
2023/07/04 03:26:38;;;;;;;4.85;4.35;;;18.90;85.70;;;;;;5019217;28;20576;-89
2023/07/04 03:29:04;;;;;;;4.10;3.90;;;18.90;85.50;;;;;;5003212;28;20242;-88
2023/07/04 03:31:30;;;;;;;4.40;4.10;;;18.80;86.00;;;;;;5003724;28;20167;-90
2023/07/04 03:33:56;;;;;;;4.60;4.10;;;18.70;87.10;;;;;;5007264;28;20246;-88
2023/07/04 03:36:21;;;;;;;4.20;3.90;;;18.60;87.10;;;;;;5024201;28;20213;-91
2023/07/04 03:38:47;;;;;;;4.65;4.25;;;18.60;87.20;;;;;;5025100;28;20198;-89
2023/07/04 03:41:13;;;;;;;4.38;4.07;;;18.70;86.80;;;;;;5027402;28;20187;-91
2023/07/04 03:43:39;;;;;;;4.40;4.05;;;18.70;86.60;;;;;;5032458;28;20182;-90
2023/07/04 03:46:05;;;;;;;4.60;4.05;;;18.60;86.70;;;;;;5034807;28;20205;-95
2023/07/04 03:48:31;;;;;;;4.50;4.10;;;18.50;88.00;;;;;;5036268;28;20278;-92
2023/07/04 03:50:57;;;;;;;4.78;4.47;;;18.40;88.40;;;;;;5036074;28;20180;-91
2023/07/04 03:53:23;;;;;;;4.70;4.30;;;18.40;88.10;;;;;;5034134;28;20257;-89
2023/07/04 03:55:50;;;;;;;4.55;4.20;;;18.50;87.50;;;;;;5030361;28;20178;-89
2023/07/04 03:58:19;;;;;;;5.28;4.60;;;18.50;87.90;;;;;;5027265;28;20213;-90
2023/07/04 04:00:46;;;;;;;4.97;4.55;;;18.60;87.70;;;;;;5024941;28;20598;-89
2023/07/04 04:03:12;;;;;;;5.68;4.43;;;18.50;87.80;;;;;;5023853;28;20180;-90
2023/07/04 04:05:39;;;;;;;4.95;4.55;;;18.50;88.30;;;;;;5024862;28;20744;-90
2023/07/04 04:08:04;;;;;;;5.40;4.90;;;18.50;88.20;;;;;;5024079;28;20263;-92
2023/07/04 04:10:30;;;;;;;7.13;5.10;;;18.40;88.40;;;;;;5025374;28;20185;-91
2023/07/04 04:12:56;;;;;;;5.15;4.68;;;18.40;88.90;;;;;;5026900;28;20210;-93
2023/07/04 04:15:21;;;;;;;5.45;4.70;;;18.40;89.30;;;;;;5020184;28;20193;-90
2023/07/04 04:17:50;;;;;;;5.90;5.40;;;18.40;89.80;;;;;;5011880;28;20226;-91
2023/07/04 04:20:16;;;;;;;5.18;4.88;;;18.40;90.00;;;;;;5004471;28;20221;-90
2023/07/04 04:22:45;;;;;;;5.05;4.65;;;18.30;90.40;;;;;;5009272;28;20182;-91
2023/07/04 04:25:12;;;;;;;5.68;4.72;;;18.30;90.50;;;;;;5025498;28;20211;-90
2023/07/04 04:27:38;;;;;;;5.40;4.95;;;18.30;90.70;;;;;;5026617;28;20215;-91
2023/07/04 04:30:08;;;;;;;5.35;4.82;;;18.20;91.10;;;;;;5007107;28;20187;-91
2023/07/04 04:32:37;;;;;;;6.40;4.70;;;18.30;91.30;;;;;;5003243;28;20598;-88
2023/07/04 04:35:03;;;;;;;5.30;4.80;;;18.20;91.80;;;;;;5016665;28;20268;-88
2023/07/04 04:37:30;;;;;;;4.38;4.05;;;18.20;92.70;;;;;;5023285;28;20218;-87
2023/07/04 04:39:56;;;;;;;5.13;4.63;;;18.20;93.00;;;;;;5023169;28;20575;-88
2023/07/04 04:42:23;;;;;;;5.25;4.85;;;18.30;93.20;;;;;;5022566;28;20253;-88
2023/07/04 04:44:55;;;;;;;5.47;4.88;;;18.40;92.80;;;;;;5023598;28;20197;-88
2023/07/04 04:47:23;;;;;;;5.70;5.20;;;18.30;93.00;;;;;;5023521;28;20205;-87
2023/07/04 04:49:51;;;;;;;5.60;5.10;;;18.30;92.90;;;;;;5023302;28;20177;-88
2023/07/04 04:52:21;;;;;;;4.97;4.60;;;18.20;93.80;;;;;;5022380;28;20210;-86
2023/07/04 04:54:47;;;;;;;5.20;4.78;;;18.30;93.70;;;;;;5022406;28;20260;-87
2023/07/04 04:57:14;;;;;;;6.10;5.13;;;18.30;94.00;;;;;;5022973;28;20267;-88
2023/07/04 04:59:40;;;;;;;5.63;5.20;;;18.20;95.30;;;;;;5013572;28;20287;-88
2023/07/04 05:02:05;;;;;;;5.38;4.88;;;18.30;94.70;;;;;;5007373;28;20190;-88
2023/07/04 05:04:32;;;;;;;5.55;5.05;;;18.40;94.60;;;;;;5006589;28;20272;-87
2023/07/04 05:06:58;;;;;;;5.45;5.05;;;18.40;95.20;;;;;;5008584;28;20189;-87
2023/07/04 05:09:24;;;;;;;5.30;4.80;;;18.40;94.70;;;;;;5008948;28;20541;-86
2023/07/04 05:11:49;;;;;;;5.88;5.40;;;18.40;95.00;;;;;;5008232;28;20266;-89
2023/07/04 05:14:15;;;;;;;5.65;5.15;;;18.40;95.50;;;;;;5003399;28;20933;-86
2023/07/04 05:16:41;;;;;;;7.13;5.43;;;18.30;96.20;;;;;;5007181;28;20223;-91
2023/07/04 05:19:06;;;;;;;6.10;5.50;;;18.40;95.90;;;;;;5007166;28;20229;-87
2023/07/04 05:21:33;;;;;;;6.10;5.43;;;18.50;95.90;;;;;;5006099;28;20221;-86
2023/07/04 05:23:59;;;;;;;6.03;5.53;;;18.50;95.30;;;;;;5005891;28;20192;-89
2023/07/04 05:26:27;;;;;;;5.63;5.13;;;18.50;95.30;;;;;;5004816;28;20194;-88
2023/07/04 05:28:55;;;;;;;6.18;5.68;;;18.40;95.50;;;;;;5006113;28;20210;-87
2023/07/04 05:31:27;;;;;;;5.60;5.10;;;18.40;95.90;;;;;;5006448;28;20194;-88
2023/07/04 05:33:53;;;;;;;5.55;5.13;;;18.40;95.30;;;;;;5006777;28;20246;-89
2023/07/04 05:36:28;;;;;;;5.78;5.35;;;18.50;94.60;;;;;;5005035;28;20186;-88
2023/07/04 05:38:56;;;;;;;5.38;4.97;;;18.60;93.90;;;;;;5007464;28;20212;-87
2023/07/04 05:41:25;;;;;;;6.43;5.32;;;18.60;93.80;;;;;;5010458;28;20193;-88
2023/07/04 05:43:53;;;;;;;5.60;5.07;;;18.60;92.80;;;;;;5003629;28;20178;-89
2023/07/04 05:46:18;;;;;;;6.78;4.93;;;18.70;93.10;;;;;;5006187;28;20190;-90
2023/07/04 05:48:44;;;;;;;5.70;5.10;;;18.70;92.90;;;;;;5009749;28;20233;-89
2023/07/04 05:51:12;;;;;;;6.82;4.85;;;18.90;92.40;;;;;;5005422;28;20196;-91
2023/07/04 05:53:40;;;;;;;6.07;4.75;;;18.80;91.80;;;;;;5006931;28;20277;-88
2023/07/04 05:56:17;;;;;;;5.93;5.43;;;18.80;89.90;;;;;;5003900;28;20186;-93
2023/07/04 05:58:46;;;;;;;5.40;4.90;;;18.80;90.10;;;;;;5011759;28;20224;-88
2023/07/04 06:01:18;;;;;;;6.70;5.35;;;18.80;89.70;;;;;;5021303;28;20187;-89
2023/07/04 06:03:44;;;;;;;5.90;5.00;;;19.00;87.60;;;;;;5022247;28;20181;-88
2023/07/04 06:06:24;;;;;;;6.88;4.78;;;19.20;86.70;;;;;;5021963;28;20181;-89
2023/07/04 06:08:51;;;;;;;5.13;4.70;;;19.20;83.70;;;;;;5016026;28;20384;-85
2023/07/04 06:11:18;;;;;;;7.22;5.10;;;19.20;85.20;;;;;;5021997;28;20181;-85
2023/07/04 06:13:43;;;;;;;5.70;5.10;;;19.30;84.00;;;;;;5021227;28;20379;-83
2023/07/04 06:16:09;;;;;;;6.00;5.50;;;19.30;83.60;;;;;;5015547;28;20209;-82
2023/07/04 06:18:35;;;;;;;6.00;5.40;;;19.40;83.20;;;;;;5017796;28;20209;-86
2023/07/04 06:21:09;;;;;;;5.72;5.25;;;19.50;81.80;;;;;;5020599;28;20261;-86
2023/07/04 06:23:35;;;;;;;6.47;5.45;;;19.60;82.20;;;;;;5021369;28;20169;-83
2023/07/04 06:26:01;;;;;;;5.53;5.03;;;19.60;82.60;;;;;;5021940;28;20174;-84
2023/07/04 06:28:26;;;;;;;6.93;5.53;;;19.50;81.40;;;;;;5021150;28;20214;-85
2023/07/04 06:30:52;;;;;;;6.32;5.50;;;19.60;79.90;;;;;;5020903;28;20192;-84
2023/07/04 06:33:17;;;;;;;6.05;5.45;;;19.80;78.00;;;;;;5019999;28;20209;-86
2023/07/04 06:35:43;;;;;;;23.33;8.18;;;19.80;76.30;;;;;;5008253;28;20198;-85
2023/07/04 06:38:12;;;;;;;8.35;4.88;;;19.80;76.90;;;;;;5020207;28;20276;-82
2023/07/04 06:40:37;;;;;;;6.72;5.78;;;19.80;76.90;;;;;;5019011;28;20193;-84
2023/07/04 06:43:05;;;;;;;6.13;5.35;;;19.90;73.90;;;;;;5019430;28;20205;-84
2023/07/04 06:45:31;;;;;;;5.93;5.40;;;20.00;74.60;;;;;;5019962;28;20224;-83
2023/07/04 06:47:58;;;;;;;8.65;5.30;;;20.00;73.00;;;;;;5019750;28;20205;-86
2023/07/04 06:50:24;;;;;;;7.38;5.82;;;19.90;72.60;;;;;;5019545;28;20187;-84
2023/07/04 06:52:50;;;;;;;6.32;5.82;;;19.90;71.00;;;;;;5016619;28;20260;-83
2023/07/04 06:55:15;;;;;;;6.97;6.00;;;20.10;70.50;;;;;;5016058;28;20551;-84
2023/07/04 06:57:42;;;;;;;6.65;6.05;;;20.20;69.00;;;;;;5015631;28;20781;-84
2023/07/04 07:00:08;;;;;;;10.60;6.35;;;20.30;69.30;;;;;;5016247;28;20556;-86
2023/07/04 07:02:34;;;;;;;7.45;5.97;;;20.30;67.50;;;;;;5022873;28;20198;-87
2023/07/04 07:04:59;;;;;;;8.02;6.20;;;20.40;67.30;;;;;;5024778;28;20204;-84
2023/07/04 07:07:25;;;;;;;9.32;6.45;;;20.40;67.70;;;;;;5016221;28;20217;-83
2023/07/04 07:09:51;;;;;;;7.60;6.30;;;20.40;68.50;;;;;;5029337;28;20206;-86
2023/07/04 07:12:17;;;;;;;7.82;6.75;;;20.30;68.90;;;;;;5028590;28;20191;-84
2023/07/04 07:14:46;;;;;;;7.90;7.03;;;20.60;66.30;;;;;;5027553;28;20189;-86
2023/07/04 07:17:12;;;;;;;7.65;6.32;;;20.80;64.40;;;;;;5024473;28;20214;-84
2023/07/04 07:19:38;;;;;;;9.77;7.07;;;20.80;62.50;;;;;;5021095;28;20227;-85
2023/07/04 07:22:04;;;;;;;10.48;7.03;;;21.00;62.00;;;;;;5019130;28;20174;-84
2023/07/04 07:24:30;;;;;;;9.25;7.07;;;21.00;62.70;;;;;;5020144;28;20179;-85
2023/07/04 07:26:57;;;;;;;7.75;6.68;;;21.00;62.30;;;;;;5019982;28;20194;-87
2023/07/04 07:29:24;;;;;;;8.00;6.65;;;21.10;60.30;;;;;;5020134;28;20189;-86
2023/07/04 07:31:50;;;;;;;6.65;6.05;;;21.30;60.50;;;;;;5019440;28;20194;-84
2023/07/04 07:34:17;;;;;;;7.78;6.35;;;21.30;61.80;;;;;;5012740;28;20241;-83
2023/07/04 07:36:45;;;;;;;8.30;6.75;;;21.40;61.00;;;;;;5000535;28;20280;-85
2023/07/04 07:39:14;;;;;;;7.25;6.40;;;21.60;60.70;;;;;;4999451;28;20205;-84
2023/07/04 07:41:43;;;;;;;10.18;6.72;;;21.70;59.80;;;;;;5001258;28;20182;-82
2023/07/04 07:44:09;;;;;;;10.40;6.70;;;21.70;58.70;;;;;;5000599;28;20719;-85
2023/07/04 07:46:35;;;;;;;7.10;6.30;;;21.70;59.30;;;;;;5001036;28;20273;-83
2023/07/04 07:49:02;;;;;;;7.95;7.00;;;21.70;59.70;;;;;;4998271;28;20293;-83
2023/07/04 07:51:28;;;;;;;8.48;6.75;;;21.70;59.50;;;;;;4999185;28;20208;-85
2023/07/04 07:53:56;;;;;;;7.60;6.65;;;21.50;60.20;;;;;;4999063;28;20656;-84
2023/07/04 07:56:24;;;;;;;8.52;6.97;;;21.40;60.30;;;;;;5005618;28;20178;-84
2023/07/04 07:58:50;;;;;;;7.90;7.10;;;21.50;60.10;;;;;;5021293;28;20205;-85
2023/07/04 08:01:25;;;;;;;13.88;7.15;;;21.50;59.90;;;;;;5020862;28;20185;-86
2023/07/04 08:03:51;;;;;;;7.63;6.22;;;21.50;59.10;;;;;;5013138;28;20169;-83
2023/07/04 08:06:21;;;;;;;6.72;6.15;;;21.50;57.20;;;;;;5022926;28;20173;-85
2023/07/04 08:08:46;;;;;;;9.10;6.28;;;21.50;56.80;;;;;;5021857;28;20197;-84
2023/07/04 08:11:13;;;;;;;12.55;7.40;;;21.50;57.20;;;;;;5022260;28;20239;-83
2023/07/04 08:13:39;;;;;;;7.00;6.30;;;21.60;56.10;;;;;;5022683;28;20220;-83
2023/07/04 08:16:05;;;;;;;9.85;6.50;;;21.70;56.40;;;;;;5022971;28;20186;-83
2023/07/04 08:18:30;;;;;;;7.57;6.82;;;21.70;57.00;;;;;;5021729;28;20216;-86
2023/07/04 08:21:01;;;;;;;8.40;7.20;;;21.70;56.90;;;;;;5022574;28;20188;-84
2023/07/04 08:23:27;;;;;;;9.70;7.70;;;21.90;55.40;;;;;;5021898;28;20256;-85
2023/07/04 08:25:53;;;;;;;8.70;7.30;;;21.90;55.30;;;;;;5021327;28;20212;-83
2023/07/04 08:28:21;;;;;;;9.23;7.40;;;21.80;54.20;;;;;;5023105;28;20224;-84
2023/07/04 08:30:47;;;;;;;9.05;7.30;;;21.80;55.30;;;;;;5021332;28;20330;-85
2023/07/04 08:33:16;;;;;;;8.35;7.10;;;22.00;55.80;;;;;;5021007;28;20177;-83
2023/07/04 08:36:03;;;;;;;9.82;7.68;;;22.10;54.10;;;;;;5020582;28;20200;-84
2023/07/04 08:38:29;;;;;;;9.90;7.32;;;22.20;54.00;;;;;;5020508;28;20228;-85
2023/07/04 08:40:55;;;;;;;8.13;7.13;;;22.30;54.60;;;;;;5019767;28;20181;-86
2023/07/04 08:43:41;;;;;;;8.20;7.40;;;22.40;52.20;;;;;;5019564;28;20201;-84
2023/07/04 08:46:11;;;;;;;9.30;7.93;;;22.60;51.80;;;;;;5021283;28;20355;-84
2023/07/04 08:48:39;;;;;;;9.60;7.85;;;22.60;52.00;;;;;;5020854;28;20202;-83
2023/07/04 08:51:04;;;;;;;9.60;7.78;;;22.50;52.60;;;;;;5021569;28;20320;-86
2023/07/04 08:53:30;;;;;;;11.07;8.52;;;22.90;51.30;;;;;;5020264;28;20214;-84
2023/07/04 08:56:06;;;;;;;10.07;7.72;;;23.10;49.90;;;;;;5020764;28;20212;-89
2023/07/04 08:58:45;;;;;;;11.75;8.73;;;23.20;48.50;;;;;;4984511;28;1103483;-84
2023/07/04 09:01:21;;;;;;;13.35;8.57;;;23.20;50.40;;;;;;5016277;28;20177;-84
2023/07/04 09:04:14;;;;;;;13.82;8.57;;;23.40;48.50;;;;;;5023526;28;20169;-86
2023/07/04 09:07:05;;;;;;;10.57;8.77;;;23.50;47.60;;;;;;5025513;28;20196;-86
2023/07/04 09:09:49;;;;;;;10.20;8.70;;;23.40;49.90;;;;;;5024957;28;20245;-84
2023/07/04 09:12:15;;;;;;;9.60;8.90;;;23.50;48.30;;;;;;5023843;28;20221;-84
2023/07/04 09:14:54;;;;;;;11.10;9.00;;;23.60;47.40;;;;;;5022843;28;20643;-85
2023/07/04 09:17:32;;;;;;;12.40;10.05;;;23.60;47.50;;;;;;5022715;28;20240;-85
2023/07/04 09:19:59;;;;;;;11.48;9.30;;;23.90;46.20;;;;;;5022722;28;20166;-84
2023/07/04 09:22:24;;;;;;;12.48;11.40;;;23.90;46.30;;;;;;5023391;28;20253;-84
2023/07/04 09:24:50;;;;;;;13.82;12.43;;;24.20;44.40;;;;;;5023677;28;20182;-85
2023/07/04 09:27:16;;;;;;;13.20;12.05;;;24.40;44.40;;;;;;5022505;28;20894;-84
2023/07/04 09:29:42;;;;;;;12.93;12.02;;;24.60;43.40;;;;;;5019680;28;20192;-83
2023/07/04 09:32:10;;;;;;;12.68;11.45;;;24.80;43.70;;;;;;5021801;28;20177;-85
2023/07/04 09:34:47;;;;;;;13.00;11.73;;;24.80;44.60;;;;;;5014176;28;20264;-84
2023/07/04 09:37:16;;;;;;;14.13;12.80;;;24.80;44.00;;;;;;5004177;28;20580;-83
2023/07/04 09:39:49;;;;;;;12.15;11.00;;;24.70;42.50;;;;;;5022783;28;20188;-84
2023/07/04 09:42:16;;;;;;;13.98;12.13;;;24.40;44.80;;;;;;5021750;28;20228;-84
2023/07/04 09:44:43;;;;;;;13.18;12.15;;;24.80;43.40;;;;;;5020862;28;20182;-85
2023/07/04 09:47:21;;;;;;;12.68;11.77;;;25.00;42.10;;;;;;5021437;28;20304;-84
2023/07/04 09:49:46;;;;;;;12.70;11.70;;;24.90;42.90;;;;;;5029351;28;20192;-84
2023/07/04 09:52:12;;;;;;;13.00;11.90;;;24.70;43.80;;;;;;5028461;28;20186;-89
2023/07/04 09:54:40;;;;;;;12.98;11.85;;;24.70;42.80;;;;;;5024344;28;20198;-85
2023/07/04 09:57:30;;;;;;;13.00;12.10;;;24.60;43.30;;;;;;5010419;28;20198;-85
2023/07/04 10:00:15;;;;;;;13.10;12.05;;;24.80;41.70;;;;;;5003603;28;20197;-83
2023/07/04 10:02:43;;;;;;;13.60;12.38;;;24.60;40.70;;;;;;5002261;28;20163;-84
2023/07/04 10:05:10;;;;;;;16.00;13.68;;;24.60;39.90;;;;;;5006375;28;20174;-84
2023/07/04 10:07:35;;;;;;;14.50;13.32;;;24.90;38.10;;;;;;5019852;28;20205;-84
2023/07/04 10:10:05;;;;;;;14.82;13.52;;;25.10;35.20;;;;;;5020451;28;20192;-84
2023/07/04 10:12:43;;;;;;;17.45;13.65;;;25.40;36.80;;;;;;5021470;28;20180;-84
2023/07/04 10:15:09;;;;;;;14.05;12.85;;;25.50;36.70;;;;;;5021995;28;20172;-85
2023/07/04 10:17:37;;;;;;;13.85;12.68;;;25.40;37.00;;;;;;5021562;28;20221;-84
2023/07/04 10:20:09;;;;;;;13.60;12.57;;;25.40;38.20;;;;;;5021900;28;20229;-84
2023/07/04 10:22:41;;;;;;;13.38;12.48;;;25.80;35.40;;;;;;5019370;28;20205;-84
2023/07/04 10:25:18;;;;;;;15.48;14.38;;;26.10;35.90;;;;;;5019525;28;20169;-83
2023/07/04 10:27:51;;;;;;;15.70;14.32;;;26.50;35.10;;;;;;5020805;28;20205;-83
2023/07/04 10:30:22;;;;;;;15.57;14.65;;;26.50;35.40;;;;;;5019630;28;20177;-84
2023/07/04 10:32:53;;;;;;;15.30;14.35;;;26.70;34.60;;;;;;5018798;28;20177;-83
2023/07/04 10:35:23;;;;;;;15.88;14.68;;;26.80;34.20;;;;;;5009004;28;20241;-83
2023/07/04 10:37:54;;;;;;;16.25;15.23;;;26.90;33.70;;;;;;5021002;28;20299;-82
2023/07/04 10:40:20;;;;;;;16.20;15.15;;;26.90;32.30;;;;;;5020986;28;20182;-85
2023/07/04 10:43:09;;;;;;;15.98;14.85;;;27.00;33.40;;;;;;5020529;28;20837;-85
2023/07/04 10:45:38;;;;;;;16.95;15.43;;;26.90;33.10;;;;;;5019242;28;20170;-84
2023/07/04 10:48:10;;;;;;;15.60;14.60;;;26.90;34.40;;;;;;5019420;28;20348;-84
2023/07/04 10:51:01;;;;;;;15.75;14.85;;;27.00;34.00;;;;;;5019973;28;20194;-85
2023/07/04 10:53:27;;;;;;;16.88;15.77;;;27.40;33.00;;;;;;5000331;28;20162;-84
2023/07/04 10:56:22;;;;;;;41.83;18.90;;;27.80;31.40;;;;;;5000222;28;20217;-82
2023/07/04 10:58:51;;;;;;;17.77;16.58;;;28.00;30.40;;;;;;5001186;28;20280;-84
2023/07/04 11:01:26;;;;;;;16.75;15.60;;;28.30;30.80;;;;;;5001782;28;20188;-83
2023/07/04 11:03:51;;;;;;;19.77;18.65;;;28.60;30.70;;;;;;5020625;28;20268;-84
2023/07/04 11:06:37;;;;;;;17.58;16.67;;;28.80;30.10;;;;;;5021040;28;20671;-84
2023/07/04 11:09:06;;;;;;;19.77;18.77;;;28.20;30.10;;;;;;5016450;28;20198;-85
2023/07/04 11:11:32;;;;;;;19.75;18.50;;;28.30;29.80;;;;;;5001210;28;20181;-83
2023/07/04 11:14:03;;;;;;;20.42;19.23;;;28.40;30.30;;;;;;5000981;28;20193;-85
2023/07/04 11:16:31;;;;;;;18.88;17.58;;;28.50;30.10;;;;;;5015822;28;20184;-85
2023/07/04 11:19:06;;;;;;;20.30;18.92;;;28.60;30.70;;;;;;5020880;28;20197;-85
2023/07/04 11:21:32;;;;;;;19.40;18.30;;;29.00;30.70;;;;;;5019581;28;20181;-84
2023/07/04 11:24:19;;;;;;;23.48;22.27;;;29.30;29.90;;;;;;5019304;28;20177;-86
2023/07/04 11:26:58;;;;;;;24.95;23.45;;;29.70;28.90;;;;;;5020382;28;20158;-84
